sensor_id;sensor_type;location;lat;lon;timestamp;P1;durP1;ratioP1;P2;durP2;ratioP2
37771;SDS011;23610;59.380;24.642;2023-03-25T00:00:28;7.13;;;1.00;;
37771;SDS011;23610;59.380;24.642;2023-03-25T00:05:31;10.35;;;2.30;;
37771;SDS011;23610;59.380;24.642;2023-03-25T00:10:33;7.03;;;1.40;;
37771;SDS011;23610;59.380;24.642;2023-03-25T00:15:36;3.03;;;0.93;;
37771;SDS011;23610;59.380;24.642;2023-03-25T00:20:43;3.42;;;1.75;;
37771;SDS011;23610;59.380;24.642;2023-03-25T00:25:46;5.47;;;1.27;;
37771;SDS011;23610;59.380;24.642;2023-03-25T00:30:50;5.40;;;1.20;;
37771;SDS011;23610;59.380;24.642;2023-03-25T00:35:54;9.18;;;1.02;;
37771;SDS011;23610;59.380;24.642;2023-03-25T00:46:30;13.85;;;1.52;;
37771;SDS011;23610;59.380;24.642;2023-03-25T00:51:34;4.10;;;1.73;;
37771;SDS011;23610;59.380;24.642;2023-03-25T00:56:53;3.78;;;1.40;;
37771;SDS011;23610;59.380;24.642;2023-03-25T01:01:56;6.57;;;1.38;;
37771;SDS011;23610;59.380;24.642;2023-03-25T01:06:59;10.18;;;1.80;;
37771;SDS011;23610;59.380;24.642;2023-03-25T01:12:04;16.38;;;2.42;;
37771;SDS011;23610;59.380;24.642;2023-03-25T01:17:07;8.70;;;2.50;;
37771;SDS011;23610;59.380;24.642;2023-03-25T01:22:10;9.00;;;1.30;;
37771;SDS011;23610;59.380;24.642;2023-03-25T01:27:15;4.47;;;1.45;;
37771;SDS011;23610;59.380;24.642;2023-03-25T01:32:18;8.48;;;2.08;;
37771;SDS011;23610;59.380;24.642;2023-03-25T01:37:21;11.45;;;2.08;;
37771;SDS011;23610;59.380;24.642;2023-03-25T01:42:26;8.73;;;1.50;;
37771;SDS011;23610;59.380;24.642;2023-03-25T01:47:28;7.63;;;1.20;;
37771;SDS011;23610;59.380;24.642;2023-03-25T01:52:31;6.00;;;1.95;;
37771;SDS011;23610;59.380;24.642;2023-03-25T01:57:34;8.55;;;1.77;;
37771;SDS011;23610;59.380;24.642;2023-03-25T02:02:38;4.82;;;1.70;;
37771;SDS011;23610;59.380;24.642;2023-03-25T02:07:42;23.60;;;2.90;;
37771;SDS011;23610;59.380;24.642;2023-03-25T02:12:48;9.57;;;1.83;;
37771;SDS011;23610;59.380;24.642;2023-03-25T02:17:59;12.52;;;2.42;;
37771;SDS011;23610;59.380;24.642;2023-03-25T02:29:02;16.65;;;2.00;;
37771;SDS011;23610;59.380;24.642;2023-03-25T02:50:32;12.05;;;3.15;;
37771;SDS011;23610;59.380;24.642;2023-03-25T02:55:48;12.93;;;2.42;;
37771;SDS011;23610;59.380;24.642;2023-03-25T03:00:53;15.98;;;2.35;;
37771;SDS011;23610;59.380;24.642;2023-03-25T03:05:59;14.95;;;2.30;;
37771;SDS011;23610;59.380;24.642;2023-03-25T03:11:19;11.32;;;2.10;;
37771;SDS011;23610;59.380;24.642;2023-03-25T03:37:58;13.05;;;2.65;;
37771;SDS011;23610;59.380;24.642;2023-03-25T03:48:47;5.53;;;1.90;;
37771;SDS011;23610;59.380;24.642;2023-03-25T03:53:57;6.53;;;1.70;;
37771;SDS011;23610;59.380;24.642;2023-03-25T03:59:09;6.03;;;1.65;;
37771;SDS011;23610;59.380;24.642;2023-03-25T04:04:41;7.83;;;1.50;;
37771;SDS011;23610;59.380;24.642;2023-03-25T04:09:50;6.20;;;1.27;;
37771;SDS011;23610;59.380;24.642;2023-03-25T04:14:59;8.15;;;1.35;;
37771;SDS011;23610;59.380;24.642;2023-03-25T04:20:05;3.88;;;1.40;;
37771;SDS011;23610;59.380;24.642;2023-03-25T04:25:12;6.45;;;1.88;;
37771;SDS011;23610;59.380;24.642;2023-03-25T04:30:15;17.67;;;7.22;;
37771;SDS011;23610;59.380;24.642;2023-03-25T04:35:20;11.27;;;4.53;;
37771;SDS011;23610;59.380;24.642;2023-03-25T04:40:23;5.82;;;2.22;;
37771;SDS011;23610;59.380;24.642;2023-03-25T04:45:26;4.22;;;1.70;;
37771;SDS011;23610;59.380;24.642;2023-03-25T04:50:31;6.47;;;3.63;;
37771;SDS011;23610;59.380;24.642;2023-03-25T04:55:34;3.65;;;1.23;;
37771;SDS011;23610;59.380;24.642;2023-03-25T05:00:51;0.68;;;0.63;;
37771;SDS011;23610;59.380;24.642;2023-03-25T05:05:54;1.98;;;0.80;;
37771;SDS011;23610;59.380;24.642;2023-03-25T05:10:57;0.80;;;0.40;;
37771;SDS011;23610;59.380;24.642;2023-03-25T05:15:59;0.90;;;0.57;;
37771;SDS011;23610;59.380;24.642;2023-03-25T05:21:02;0.40;;;0.40;;
37771;SDS011;23610;59.380;24.642;2023-03-25T05:26:05;0.43;;;0.43;;
37771;SDS011;23610;59.380;24.642;2023-03-25T05:31:09;0.68;;;0.68;;
37771;SDS011;23610;59.380;24.642;2023-03-25T05:36:12;3.47;;;0.85;;
37771;SDS011;23610;59.380;24.642;2023-03-25T05:41:16;1.15;;;0.60;;
37771;SDS011;23610;59.380;24.642;2023-03-25T05:46:19;2.55;;;0.95;;
37771;SDS011;23610;59.380;24.642;2023-03-25T05:51:22;1.08;;;0.70;;
37771;SDS011;23610;59.380;24.642;2023-03-25T05:56:26;2.55;;;0.43;;
37771;SDS011;23610;59.380;24.642;2023-03-25T06:01:30;1.98;;;0.57;;
37771;SDS011;23610;59.380;24.642;2023-03-25T06:06:35;2.78;;;0.70;;
37771;SDS011;23610;59.380;24.642;2023-03-25T06:11:37;4.82;;;1.10;;
37771;SDS011;23610;59.380;24.642;2023-03-25T06:16:40;4.13;;;0.63;;
37771;SDS011;23610;59.380;24.642;2023-03-25T06:21:44;1.50;;;0.70;;
37771;SDS011;23610;59.380;24.642;2023-03-25T06:26:49;6.05;;;2.00;;
37771;SDS011;23610;59.380;24.642;2023-03-25T06:31:52;6.43;;;1.60;;
37771;SDS011;23610;59.380;24.642;2023-03-25T06:36:55;3.13;;;0.73;;
37771;SDS011;23610;59.380;24.642;2023-03-25T06:41:57;5.68;;;1.60;;
37771;SDS011;23610;59.380;24.642;2023-03-25T06:47:17;8.38;;;3.90;;
37771;SDS011;23610;59.380;24.642;2023-03-25T06:52:23;8.68;;;2.08;;
37771;SDS011;23610;59.380;24.642;2023-03-25T06:57:26;1.27;;;1.10;;
37771;SDS011;23610;59.380;24.642;2023-03-25T07:02:28;3.85;;;1.13;;
37771;SDS011;23610;59.380;24.642;2023-03-25T07:07:31;3.20;;;1.23;;
37771;SDS011;23610;59.380;24.642;2023-03-25T07:12:33;3.15;;;2.70;;
37771;SDS011;23610;59.380;24.642;2023-03-25T07:17:36;9.13;;;6.03;;
37771;SDS011;23610;59.380;24.642;2023-03-25T07:22:39;4.07;;;1.90;;
37771;SDS011;23610;59.380;24.642;2023-03-25T07:27:42;4.80;;;2.95;;
37771;SDS011;23610;59.380;24.642;2023-03-25T07:32:49;1.83;;;0.90;;
37771;SDS011;23610;59.380;24.642;2023-03-25T07:37:52;2.17;;;0.80;;
37771;SDS011;23610;59.380;24.642;2023-03-25T07:42:54;3.10;;;0.98;;
37771;SDS011;23610;59.380;24.642;2023-03-25T07:48:09;3.23;;;1.23;;
37771;SDS011;23610;59.380;24.642;2023-03-25T07:53:15;2.78;;;1.20;;
37771;SDS011;23610;59.380;24.642;2023-03-25T07:58:18;2.22;;;2.03;;
37771;SDS011;23610;59.380;24.642;2023-03-25T08:03:21;3.33;;;1.48;;
37771;SDS011;23610;59.380;24.642;2023-03-25T08:08:23;4.15;;;1.75;;
37771;SDS011;23610;59.380;24.642;2023-03-25T08:13:26;7.55;;;4.60;;
37771;SDS011;23610;59.380;24.642;2023-03-25T08:18:29;9.00;;;3.83;;
37771;SDS011;23610;59.380;24.642;2023-03-25T08:23:32;5.15;;;3.22;;
37771;SDS011;23610;59.380;24.642;2023-03-25T08:28:37;6.50;;;3.38;;
37771;SDS011;23610;59.380;24.642;2023-03-25T08:33:40;5.07;;;2.72;;
37771;SDS011;23610;59.380;24.642;2023-03-25T08:38:43;5.53;;;2.58;;
37771;SDS011;23610;59.380;24.642;2023-03-25T08:43:47;8.00;;;3.90;;
37771;SDS011;23610;59.380;24.642;2023-03-25T08:48:50;9.57;;;3.30;;
37771;SDS011;23610;59.380;24.642;2023-03-25T08:53:54;7.72;;;3.78;;
37771;SDS011;23610;59.380;24.642;2023-03-25T08:58:56;7.00;;;2.42;;
37771;SDS011;23610;59.380;24.642;2023-03-25T09:03:59;4.57;;;3.13;;
37771;SDS011;23610;59.380;24.642;2023-03-25T09:09:02;8.52;;;3.38;;
37771;SDS011;23610;59.380;24.642;2023-03-25T09:14:06;11.93;;;3.65;;
37771;SDS011;23610;59.380;24.642;2023-03-25T09:19:08;6.07;;;3.33;;
37771;SDS011;23610;59.380;24.642;2023-03-25T09:24:11;7.53;;;3.47;;
37771;SDS011;23610;59.380;24.642;2023-03-25T09:29:14;9.00;;;4.15;;
37771;SDS011;23610;59.380;24.642;2023-03-25T09:34:17;5.93;;;3.88;;
37771;SDS011;23610;59.380;24.642;2023-03-25T09:39:19;12.85;;;4.57;;
37771;SDS011;23610;59.380;24.642;2023-03-25T09:44:26;6.63;;;2.92;;
37771;SDS011;23610;59.380;24.642;2023-03-25T09:49:37;8.55;;;3.30;;
37771;SDS011;23610;59.380;24.642;2023-03-25T09:55:06;8.55;;;4.38;;
37771;SDS011;23610;59.380;24.642;2023-03-25T10:05:24;13.52;;;6.00;;
37771;SDS011;23610;59.380;24.642;2023-03-25T10:11:26;3.90;;;2.28;;
37771;SDS011;23610;59.380;24.642;2023-03-25T10:16:58;3.28;;;2.00;;
37771;SDS011;23610;59.380;24.642;2023-03-25T10:22:25;5.20;;;2.33;;
37771;SDS011;23610;59.380;24.642;2023-03-25T10:32:42;9.00;;;3.10;;
37771;SDS011;23610;59.380;24.642;2023-03-25T10:38:01;6.20;;;2.90;;
37771;SDS011;23610;59.380;24.642;2023-03-25T10:43:30;4.75;;;3.00;;
37771;SDS011;23610;59.380;24.642;2023-03-25T10:48:36;9.30;;;2.38;;
37771;SDS011;23610;59.380;24.642;2023-03-25T10:53:40;4.93;;;2.42;;
37771;SDS011;23610;59.380;24.642;2023-03-25T10:58:47;7.35;;;2.45;;
37771;SDS011;23610;59.380;24.642;2023-03-25T11:03:54;3.40;;;2.05;;
37771;SDS011;23610;59.380;24.642;2023-03-25T11:14:22;5.78;;;2.33;;
37771;SDS011;23610;59.380;24.642;2023-03-25T11:19:35;7.80;;;2.33;;
37771;SDS011;23610;59.380;24.642;2023-03-25T11:24:58;5.57;;;3.10;;
37771;SDS011;23610;59.380;24.642;2023-03-25T11:30:22;10.77;;;4.10;;
37771;SDS011;23610;59.380;24.642;2023-03-25T11:35:28;19.15;;;8.40;;
37771;SDS011;23610;59.380;24.642;2023-03-25T11:40:35;5.53;;;3.53;;
37771;SDS011;23610;59.380;24.642;2023-03-25T11:45:37;3.88;;;2.38;;
37771;SDS011;23610;59.380;24.642;2023-03-25T11:50:43;8.20;;;4.32;;
37771;SDS011;23610;59.380;24.642;2023-03-25T11:55:53;7.80;;;2.63;;
37771;SDS011;23610;59.380;24.642;2023-03-25T12:01:59;5.72;;;3.33;;
37771;SDS011;23610;59.380;24.642;2023-03-25T12:12:46;8.20;;;2.92;;
37771;SDS011;23610;59.380;24.642;2023-03-25T12:29:25;5.43;;;2.00;;
37771;SDS011;23610;59.380;24.642;2023-03-25T12:51:38;7.00;;;3.85;;
37771;SDS011;23610;59.380;24.642;2023-03-25T12:56:53;16.90;;;6.82;;
37771;SDS011;23610;59.380;24.642;2023-03-25T13:02:30;17.00;;;7.80;;
37771;SDS011;23610;59.380;24.642;2023-03-25T13:08:09;9.40;;;4.40;;
37771;SDS011;23610;59.380;24.642;2023-03-25T13:13:20;8.17;;;2.63;;
37771;SDS011;23610;59.380;24.642;2023-03-25T13:18:27;6.53;;;2.63;;
37771;SDS011;23610;59.380;24.642;2023-03-25T13:23:37;13.90;;;3.88;;
37771;SDS011;23610;59.380;24.642;2023-03-25T13:28:43;9.40;;;4.57;;
37771;SDS011;23610;59.380;24.642;2023-03-25T13:33:56;13.90;;;5.13;;
37771;SDS011;23610;59.380;24.642;2023-03-25T13:39:28;2.83;;;2.30;;
37771;SDS011;23610;59.380;24.642;2023-03-25T13:50:24;7.10;;;3.75;;
37771;SDS011;23610;59.380;24.642;2023-03-25T13:55:32;11.43;;;4.60;;
37771;SDS011;23610;59.380;24.642;2023-03-25T14:12:16;7.93;;;4.03;;
37771;SDS011;23610;59.380;24.642;2023-03-25T14:17:33;10.00;;;3.08;;
37771;SDS011;23610;59.380;24.642;2023-03-25T14:22:38;7.47;;;3.13;;
37771;SDS011;23610;59.380;24.642;2023-03-25T14:27:47;13.02;;;2.97;;
37771;SDS011;23610;59.380;24.642;2023-03-25T14:32:52;11.52;;;4.57;;
37771;SDS011;23610;59.380;24.642;2023-03-25T14:48:50;16.95;;;7.10;;
37771;SDS011;23610;59.380;24.642;2023-03-25T14:59:31;10.82;;;5.50;;
37771;SDS011;23610;59.380;24.642;2023-03-25T15:04:59;10.55;;;4.53;;
37771;SDS011;23610;59.380;24.642;2023-03-25T15:10:18;7.85;;;4.05;;
37771;SDS011;23610;59.380;24.642;2023-03-25T15:54:42;7.10;;;3.55;;
37771;SDS011;23610;59.380;24.642;2023-03-25T15:59:58;8.35;;;3.38;;
37771;SDS011;23610;59.380;24.642;2023-03-25T16:05:14;7.72;;;4.07;;
37771;SDS011;23610;59.380;24.642;2023-03-25T16:10:21;7.60;;;4.03;;
37771;SDS011;23610;59.380;24.642;2023-03-25T16:15:34;18.23;;;10.00;;
37771;SDS011;23610;59.380;24.642;2023-03-25T16:20:37;16.17;;;9.43;;
37771;SDS011;23610;59.380;24.642;2023-03-25T16:25:42;31.43;;;14.67;;
37771;SDS011;23610;59.380;24.642;2023-03-25T16:30:49;18.08;;;9.00;;
37771;SDS011;23610;59.380;24.642;2023-03-25T16:35:58;13.43;;;6.85;;
37771;SDS011;23610;59.380;24.642;2023-03-25T16:41:10;15.55;;;9.07;;
37771;SDS011;23610;59.380;24.642;2023-03-25T16:46:15;16.75;;;9.07;;
37771;SDS011;23610;59.380;24.642;2023-03-25T16:51:27;11.82;;;5.55;;
37771;SDS011;23610;59.380;24.642;2023-03-25T16:56:36;18.88;;;7.38;;
37771;SDS011;23610;59.380;24.642;2023-03-25T17:01:40;29.65;;;15.43;;
37771;SDS011;23610;59.380;24.642;2023-03-25T17:06:52;26.10;;;13.13;;
37771;SDS011;23610;59.380;24.642;2023-03-25T17:12:16;19.55;;;10.52;;
37771;SDS011;23610;59.380;24.642;2023-03-25T17:22:34;17.42;;;10.57;;
37771;SDS011;23610;59.380;24.642;2023-03-25T17:27:40;14.95;;;8.27;;
37771;SDS011;23610;59.380;24.642;2023-03-25T17:32:44;15.65;;;7.63;;
37771;SDS011;23610;59.380;24.642;2023-03-25T17:37:50;13.65;;;8.50;;
37771;SDS011;23610;59.380;24.642;2023-03-25T17:42:54;11.52;;;7.18;;
37771;SDS011;23610;59.380;24.642;2023-03-25T17:47:57;18.23;;;10.63;;
37771;SDS011;23610;59.380;24.642;2023-03-25T17:53:00;20.90;;;9.77;;
37771;SDS011;23610;59.380;24.642;2023-03-25T17:58:02;18.02;;;8.35;;
37771;SDS011;23610;59.380;24.642;2023-03-25T18:03:12;15.75;;;8.23;;
37771;SDS011;23610;59.380;24.642;2023-03-25T18:08:21;17.55;;;7.65;;
37771;SDS011;23610;59.380;24.642;2023-03-25T18:13:25;12.27;;;5.65;;
37771;SDS011;23610;59.380;24.642;2023-03-25T18:18:28;19.52;;;5.50;;
37771;SDS011;23610;59.380;24.642;2023-03-25T18:23:31;14.85;;;3.55;;
37771;SDS011;23610;59.380;24.642;2023-03-25T18:28:34;13.32;;;4.90;;
37771;SDS011;23610;59.380;24.642;2023-03-25T18:33:36;14.15;;;6.30;;
37771;SDS011;23610;59.380;24.642;2023-03-25T18:38:39;11.82;;;3.67;;
37771;SDS011;23610;59.380;24.642;2023-03-25T18:43:44;18.52;;;4.07;;
37771;SDS011;23610;59.380;24.642;2023-03-25T18:48:46;9.90;;;3.58;;
37771;SDS011;23610;59.380;24.642;2023-03-25T18:53:49;11.13;;;3.78;;
37771;SDS011;23610;59.380;24.642;2023-03-25T18:58:52;16.42;;;3.80;;
37771;SDS011;23610;59.380;24.642;2023-03-25T19:03:55;12.38;;;4.43;;
37771;SDS011;23610;59.380;24.642;2023-03-25T19:09:03;17.73;;;4.43;;
37771;SDS011;23610;59.380;24.642;2023-03-25T19:14:06;11.57;;;4.35;;
37771;SDS011;23610;59.380;24.642;2023-03-25T19:19:09;11.23;;;3.85;;
37771;SDS011;23610;59.380;24.642;2023-03-25T19:24:12;10.33;;;4.13;;
37771;SDS011;23610;59.380;24.642;2023-03-25T19:29:15;17.38;;;4.32;;
37771;SDS011;23610;59.380;24.642;2023-03-25T19:34:18;11.38;;;4.30;;
37771;SDS011;23610;59.380;24.642;2023-03-25T19:39:22;10.45;;;3.78;;
37771;SDS011;23610;59.380;24.642;2023-03-25T19:44:26;11.48;;;3.25;;
37771;SDS011;23610;59.380;24.642;2023-03-25T19:49:29;11.02;;;2.50;;
37771;SDS011;23610;59.380;24.642;2023-03-25T19:54:40;12.77;;;3.05;;
37771;SDS011;23610;59.380;24.642;2023-03-25T19:59:43;11.57;;;3.40;;
37771;SDS011;23610;59.380;24.642;2023-03-25T20:04:45;11.50;;;3.58;;
37771;SDS011;23610;59.380;24.642;2023-03-25T20:09:48;9.98;;;3.15;;
37771;SDS011;23610;59.380;24.642;2023-03-25T20:14:51;9.88;;;2.72;;
37771;SDS011;23610;59.380;24.642;2023-03-25T20:19:53;15.00;;;4.60;;
37771;SDS011;23610;59.380;24.642;2023-03-25T20:24:56;11.52;;;3.92;;
37771;SDS011;23610;59.380;24.642;2023-03-25T20:29:59;15.05;;;3.55;;
37771;SDS011;23610;59.380;24.642;2023-03-25T20:35:02;12.55;;;3.38;;
37771;SDS011;23610;59.380;24.642;2023-03-25T20:40:06;7.53;;;3.53;;
37771;SDS011;23610;59.380;24.642;2023-03-25T20:45:14;21.88;;;4.00;;
37771;SDS011;23610;59.380;24.642;2023-03-25T20:50:18;13.45;;;4.93;;
37771;SDS011;23610;59.380;24.642;2023-03-25T20:55:22;15.13;;;4.55;;
37771;SDS011;23610;59.380;24.642;2023-03-25T21:00:25;15.05;;;5.07;;
37771;SDS011;23610;59.380;24.642;2023-03-25T21:05:28;18.63;;;6.50;;
37771;SDS011;23610;59.380;24.642;2023-03-25T21:10:31;16.83;;;5.57;;
37771;SDS011;23610;59.380;24.642;2023-03-25T21:15:35;18.67;;;5.75;;
37771;SDS011;23610;59.380;24.642;2023-03-25T21:20:40;23.35;;;6.53;;
37771;SDS011;23610;59.380;24.642;2023-03-25T21:25:43;18.85;;;7.00;;
37771;SDS011;23610;59.380;24.642;2023-03-25T21:31:01;16.63;;;5.78;;
37771;SDS011;23610;59.380;24.642;2023-03-25T21:36:18;24.10;;;8.35;;
37771;SDS011;23610;59.380;24.642;2023-03-25T21:41:25;26.80;;;10.95;;
37771;SDS011;23610;59.380;24.642;2023-03-25T21:46:30;28.85;;;10.68;;
37771;SDS011;23610;59.380;24.642;2023-03-25T21:51:34;32.10;;;12.63;;
37771;SDS011;23610;59.380;24.642;2023-03-25T21:56:43;34.50;;;14.88;;
37771;SDS011;23610;59.380;24.642;2023-03-25T22:01:45;31.70;;;11.55;;
37771;SDS011;23610;59.380;24.642;2023-03-25T22:06:48;11.43;;;4.95;;
37771;SDS011;23610;59.380;24.642;2023-03-25T22:11:51;12.23;;;5.20;;
37771;SDS011;23610;59.380;24.642;2023-03-25T22:16:54;17.00;;;5.18;;
37771;SDS011;23610;59.380;24.642;2023-03-25T22:21:57;11.73;;;5.65;;
37771;SDS011;23610;59.380;24.642;2023-03-25T22:26:59;11.20;;;6.63;;
37771;SDS011;23610;59.380;24.642;2023-03-25T22:32:02;17.13;;;5.63;;
37771;SDS011;23610;59.380;24.642;2023-03-25T22:37:07;11.55;;;6.45;;
37771;SDS011;23610;59.380;24.642;2023-03-25T22:42:10;23.45;;;6.47;;
37771;SDS011;23610;59.380;24.642;2023-03-25T22:47:13;14.30;;;5.25;;
37771;SDS011;23610;59.380;24.642;2023-03-25T22:52:16;9.48;;;5.43;;
37771;SDS011;23610;59.380;24.642;2023-03-25T22:57:18;17.65;;;5.15;;
37771;SDS011;23610;59.380;24.642;2023-03-25T23:02:21;13.30;;;6.28;;
37771;SDS011;23610;59.380;24.642;2023-03-25T23:07:24;16.60;;;5.20;;
37771;SDS011;23610;59.380;24.642;2023-03-25T23:12:27;13.95;;;5.97;;
37771;SDS011;23610;59.380;24.642;2023-03-25T23:17:29;15.00;;;5.32;;
37771;SDS011;23610;59.380;24.642;2023-03-25T23:22:32;11.80;;;5.28;;
37771;SDS011;23610;59.380;24.642;2023-03-25T23:27:35;12.10;;;5.75;;
37771;SDS011;23610;59.380;24.642;2023-03-25T23:32:37;23.13;;;6.10;;
37771;SDS011;23610;59.380;24.642;2023-03-25T23:37:42;12.23;;;5.97;;
37771;SDS011;23610;59.380;24.642;2023-03-25T23:42:50;30.35;;;5.90;;
37771;SDS011;23610;59.380;24.642;2023-03-25T23:47:53;28.05;;;5.75;;
37771;SDS011;23610;59.380;24.642;2023-03-25T23:52:57;24.13;;;5.43;;
37771;SDS011;23610;59.380;24.642;2023-03-25T23:58:02;12.93;;;5.05;;
